createdAt,value
2019-03-02T00:03:38.054Z,3.82
2019-03-02T00:06:05.181Z,3.76
2019-03-02T00:08:32.477Z,3.76
2019-03-02T00:10:59.743Z,3.67
2019-03-02T00:13:26.891Z,3.72
2019-03-02T00:15:54.305Z,3.76
2019-03-02T00:18:21.485Z,3.67
2019-03-02T00:20:50.325Z,3.66
2019-03-02T00:23:18.888Z,3.73
2019-03-02T00:25:46.570Z,3.73
2019-03-02T00:28:13.575Z,3.69
2019-03-02T00:30:40.410Z,3.65
2019-03-02T00:33:07.360Z,3.58
2019-03-02T00:35:34.092Z,3.37
2019-03-02T00:38:00.961Z,3.67
2019-03-02T00:40:30.373Z,3.58
2019-03-02T00:42:56.482Z,3.68
2019-03-02T00:45:23.201Z,3.64
2019-03-02T00:47:50.000Z,3.58
2019-03-02T00:50:36.647Z,3.64
2019-03-02T00:53:05.394Z,3.76
2019-03-02T00:55:45.391Z,3.68
2019-03-02T00:58:12.618Z,3.70
2019-03-02T01:00:39.468Z,3.58
2019-03-02T01:03:06.592Z,3.58
2019-03-02T01:05:36.104Z,3.60
2019-03-02T01:08:02.023Z,3.54
2019-03-02T01:10:28.891Z,3.58
2019-03-02T01:12:55.768Z,3.63
2019-03-02T01:15:22.710Z,3.64
2019-03-02T01:17:49.543Z,3.69
2019-03-02T01:20:16.495Z,3.60
2019-03-02T01:22:43.511Z,3.69
2019-03-02T01:25:13.490Z,3.59
2019-03-02T01:27:40.497Z,3.52
2019-03-02T01:30:29.965Z,3.59
2019-03-02T01:32:57.538Z,3.54
2019-03-02T01:35:24.191Z,3.52
2019-03-02T01:37:50.837Z,3.48
2019-03-02T01:40:18.284Z,3.49
2019-03-02T01:42:44.948Z,3.49
2019-03-02T01:45:13.773Z,3.43
2019-03-02T01:47:40.817Z,3.45
2019-03-02T01:50:49.360Z,3.51
2019-03-02T01:53:16.562Z,3.48
2019-03-02T01:55:43.185Z,3.48
2019-03-02T01:58:32.262Z,3.48
2019-03-02T02:00:59.014Z,3.42
2019-03-02T02:03:25.740Z,3.43
2019-03-02T02:05:52.705Z,3.50
2019-03-02T02:08:19.534Z,3.51
2019-03-02T02:10:46.267Z,3.46
2019-03-02T02:13:13.064Z,3.43
2019-03-02T02:15:39.798Z,3.43
2019-03-02T02:18:06.530Z,3.41
2019-03-02T02:20:33.429Z,3.40
2019-03-02T02:23:00.175Z,3.43
2019-03-02T02:25:27.184Z,3.49
2019-03-02T02:27:54.860Z,3.51
2019-03-02T02:31:06.390Z,3.50
2019-03-02T02:33:33.240Z,3.37
2019-03-02T02:36:00.715Z,3.42
2019-03-02T02:38:28.041Z,3.39
2019-03-02T02:40:54.834Z,3.48
2019-03-02T02:43:22.366Z,3.46
2019-03-02T02:45:53.634Z,3.53
2019-03-02T02:48:19.305Z,3.62
2019-03-02T02:50:46.145Z,3.60
2019-03-02T02:53:12.875Z,3.65
2019-03-02T02:55:40.982Z,3.65
2019-03-02T02:58:12.717Z,3.58
2019-03-02T03:00:37.015Z,3.45
2019-03-02T03:03:04.139Z,3.63
2019-03-02T03:05:53.933Z,3.68
2019-03-02T03:08:55.695Z,3.60
2019-03-02T03:11:22.721Z,3.56
2019-03-02T03:13:49.581Z,3.66
2019-03-02T03:16:17.899Z,3.66
2019-03-02T03:18:47.146Z,3.67
2019-03-02T03:21:13.812Z,3.69
2019-03-02T03:23:40.671Z,3.71
2019-03-02T03:26:07.539Z,3.72
2019-03-02T03:28:34.262Z,3.71
2019-03-02T03:31:01.124Z,3.73
2019-03-02T03:33:42.141Z,3.76
2019-03-02T03:35:57.717Z,3.73
2019-03-02T03:38:29.375Z,3.79
2019-03-02T03:40:54.358Z,3.82
2019-03-02T03:43:21.190Z,3.79
2019-03-02T03:45:48.055Z,3.78
2019-03-02T03:48:17.946Z,3.81
2019-03-02T03:50:48.023Z,3.81
2019-03-02T03:53:12.826Z,3.87
2019-03-02T03:55:39.556Z,3.91
2019-03-02T03:58:13.189Z,3.91
2019-03-02T04:00:40.407Z,3.88
2019-03-02T04:03:21.261Z,3.86
2019-03-02T04:05:48.686Z,3.88
2019-03-02T04:08:17.264Z,3.88
2019-03-02T04:10:44.001Z,3.81
2019-03-02T04:13:10.805Z,3.80
2019-03-02T04:15:41.515Z,3.79
2019-03-02T04:18:50.122Z,3.78
2019-03-02T04:21:14.541Z,3.75
2019-03-02T04:23:41.173Z,3.73
2019-03-02T04:26:08.563Z,3.73
2019-03-02T04:28:35.203Z,3.71
2019-03-02T04:31:04.718Z,3.75
2019-03-02T04:33:30.666Z,3.64
2019-03-02T04:35:57.318Z,3.70
2019-03-02T04:38:24.042Z,3.72
2019-03-02T04:40:51.020Z,3.75
2019-03-02T04:43:17.749Z,3.80
2019-03-02T04:45:44.488Z,3.80
2019-03-02T04:48:11.301Z,3.83
2019-03-02T04:50:38.217Z,3.79
2019-03-02T04:53:05.139Z,3.74
2019-03-02T04:55:32.324Z,3.73
2019-03-02T04:57:58.965Z,3.69
2019-03-02T05:00:28.627Z,3.72
2019-03-02T05:02:56.163Z,3.69
2019-03-02T05:05:24.170Z,3.75
2019-03-02T05:07:50.995Z,3.70
2019-03-02T05:10:17.953Z,3.70
2019-03-02T05:12:44.686Z,3.69
2019-03-02T05:15:16.186Z,3.62
2019-03-02T05:17:42.967Z,3.65
2019-03-02T05:20:09.965Z,3.64
2019-03-02T05:22:36.697Z,3.59
2019-03-02T05:25:04.345Z,3.58
2019-03-02T05:27:32.038Z,3.64
2019-03-02T05:29:59.729Z,3.60
2019-03-02T05:32:26.438Z,3.66
2019-03-02T05:34:53.069Z,3.68
2019-03-02T05:37:19.983Z,3.67
2019-03-02T05:39:49.549Z,3.65
2019-03-02T05:42:15.565Z,3.70
2019-03-02T05:44:42.311Z,3.68
2019-03-02T05:47:09.424Z,3.67
2019-03-02T05:49:36.161Z,3.64
2019-03-02T05:52:03.310Z,3.60
2019-03-02T05:54:30.024Z,3.64
2019-03-02T05:56:56.752Z,3.72
2019-03-02T05:59:26.599Z,3.60
2019-03-02T06:01:52.155Z,3.62
2019-03-02T06:04:22.108Z,3.56
2019-03-02T06:07:00.405Z,3.59
2019-03-02T06:09:27.684Z,3.56
2019-03-02T06:11:54.614Z,3.58
2019-03-02T06:14:21.587Z,3.58
2019-03-02T06:16:48.229Z,3.63
2019-03-02T06:19:17.801Z,3.58
2019-03-02T06:22:03.339Z,3.60
2019-03-02T06:24:30.686Z,3.67
2019-03-02T06:26:57.756Z,3.61
2019-03-02T06:29:24.550Z,3.57
2019-03-02T06:31:54.044Z,3.66
2019-03-02T06:34:20.730Z,3.73
2019-03-02T06:36:48.164Z,3.68
2019-03-02T06:39:15.138Z,3.74
2019-03-02T06:41:42.047Z,3.69
2019-03-02T06:44:50.029Z,3.78
2019-03-02T06:47:17.230Z,3.76
2019-03-02T06:49:44.338Z,3.77
2019-03-02T06:52:30.773Z,3.75
2019-03-02T06:54:58.030Z,3.69
2019-03-02T06:57:25.134Z,3.85
2019-03-02T07:01:49.322Z,3.92
2019-03-02T07:04:18.058Z,3.80
2019-03-02T07:06:46.913Z,3.83
2019-03-02T07:09:27.621Z,3.90
2019-03-02T07:11:54.548Z,3.90
2019-03-02T07:14:21.595Z,3.91
2019-03-02T07:16:51.975Z,3.96
2019-03-02T07:19:37.952Z,3.94
2019-03-02T07:22:04.822Z,3.99
2019-03-02T07:24:31.569Z,4.03
2019-03-02T07:26:58.984Z,4.07
2019-03-02T07:29:45.463Z,4.10
2019-03-02T07:32:13.192Z,4.17
2019-03-02T07:34:40.801Z,4.22
2019-03-02T07:37:09.210Z,4.39
2019-03-02T07:39:38.437Z,4.39
2019-03-02T07:42:05.272Z,4.44
2019-03-02T07:44:32.062Z,4.51
2019-03-02T07:46:59.741Z,4.55
2019-03-02T07:49:26.573Z,4.56
2019-03-02T07:51:53.442Z,4.61
2019-03-02T07:54:20.576Z,4.60
2019-03-02T07:56:47.751Z,4.64
2019-03-02T07:59:15.206Z,4.63
2019-03-02T08:01:42.261Z,4.71
2019-03-02T08:04:09.622Z,4.74
2019-03-02T08:06:36.480Z,4.76
2019-03-02T08:09:44.698Z,4.71
2019-03-02T08:12:11.980Z,4.81
2019-03-02T08:14:39.270Z,4.91
2019-03-02T08:17:09.790Z,4.93
2019-03-02T08:19:35.450Z,4.90
2019-03-02T08:22:03.756Z,4.98
2019-03-02T08:24:32.766Z,4.94
2019-03-02T08:26:59.872Z,5.09
2019-03-02T08:29:46.586Z,4.97
2019-03-02T08:32:13.494Z,5.05
2019-03-02T08:34:42.856Z,4.99
2019-03-02T08:37:09.738Z,5.16
2019-03-02T08:39:37.410Z,5.14
2019-03-02T08:42:05.051Z,5.31
2019-03-02T08:44:32.514Z,5.31
2019-03-02T08:47:00.280Z,5.25
2019-03-02T08:49:27.381Z,5.28
2019-03-02T08:51:55.376Z,5.35
2019-03-02T08:54:22.741Z,5.50
2019-03-02T08:56:49.830Z,5.62
2019-03-02T08:59:17.318Z,5.72
2019-03-02T09:01:44.559Z,5.81
2019-03-02T09:04:14.049Z,5.86
2019-03-02T09:06:40.857Z,5.99
2019-03-02T09:09:08.461Z,6.04
2019-03-02T09:11:35.376Z,6.16
2019-03-02T09:14:02.539Z,6.14
2019-03-02T09:16:29.825Z,6.09
2019-03-02T09:18:56.612Z,6.05
2019-03-02T09:21:23.374Z,6.01
2019-03-02T09:23:51.724Z,5.99
2019-03-02T09:26:19.237Z,5.93
2019-03-02T09:28:46.699Z,5.85
2019-03-02T09:31:13.831Z,6.00
2019-03-02T09:33:40.939Z,5.92
2019-03-02T09:36:07.948Z,6.11
2019-03-02T09:38:34.889Z,6.05
2019-03-02T09:41:01.654Z,6.08
2019-03-02T09:43:28.407Z,5.96
2019-03-02T09:45:55.560Z,6.03
2019-03-02T09:48:24.525Z,6.04
2019-03-02T09:50:51.095Z,6.15
2019-03-02T09:53:18.150Z,6.09
2019-03-02T09:55:44.977Z,6.11
2019-03-02T09:58:12.033Z,6.21
2019-03-02T10:00:39.293Z,6.10
2019-03-02T10:03:06.299Z,6.22
2019-03-02T10:05:33.035Z,6.10
2019-03-02T10:08:00.548Z,6.12
2019-03-02T10:10:28.987Z,5.91
2019-03-02T10:12:57.261Z,6.15
2019-03-02T10:15:24.695Z,6.08
2019-03-02T10:17:52.284Z,6.21
2019-03-02T10:20:19.594Z,6.01
2019-03-02T10:22:46.850Z,6.29
2019-03-02T10:25:14.343Z,6.12
2019-03-02T10:27:41.717Z,6.10
2019-03-02T10:30:11.725Z,6.22
2019-03-02T10:32:38.867Z,6.23
2019-03-02T10:35:06.693Z,6.21
2019-03-02T10:37:33.947Z,6.24
2019-03-02T10:40:01.529Z,6.27
2019-03-02T10:42:32.081Z,6.32
2019-03-02T10:45:17.765Z,6.37
2019-03-02T10:47:45.311Z,6.31
2019-03-02T10:50:14.745Z,6.36
2019-03-02T10:52:41.713Z,6.18
2019-03-02T10:55:12.303Z,6.26
2019-03-02T10:57:38.951Z,6.15
2019-03-02T11:00:09.258Z,6.21
2019-03-02T11:02:37.014Z,6.21
2019-03-02T11:08:16.201Z,6.34
2019-03-02T11:11:02.897Z,6.35
2019-03-02T11:13:51.980Z,6.48
2019-03-02T11:16:38.375Z,6.57
2019-03-02T11:19:25.187Z,6.37
2019-03-02T11:22:14.972Z,6.58
2019-03-02T11:25:00.443Z,6.55
2019-03-02T11:27:49.684Z,6.56
2019-03-02T11:30:36.152Z,6.76
2019-03-02T11:33:22.885Z,6.78
2019-03-02T11:36:10.597Z,7.06
2019-03-02T11:38:57.443Z,7.09
2019-03-02T11:41:44.236Z,7.16
2019-03-02T11:44:31.462Z,7.04
2019-03-02T11:47:18.116Z,7.07
2019-03-02T11:50:04.602Z,7.06
2019-03-02T11:52:51.339Z,7.34
2019-03-02T11:55:38.326Z,7.43
2019-03-02T11:58:14.029Z,7.37
2019-03-02T12:01:01.097Z,7.48
2019-03-02T12:03:47.797Z,7.57
2019-03-02T12:06:25.494Z,7.63
2019-03-02T12:09:12.430Z,7.67
2019-03-02T12:11:59.037Z,7.78
2019-03-02T12:14:46.293Z,8.06
2019-03-02T12:17:41.050Z,7.97
2019-03-02T12:20:24.951Z,8.01
2019-03-02T12:22:59.936Z,7.97
2019-03-02T12:25:46.671Z,7.70
2019-03-02T12:28:36.233Z,7.49
2019-03-02T12:31:21.959Z,7.56
2019-03-02T12:34:08.665Z,7.41
2019-03-02T12:36:55.467Z,7.20
2019-03-02T12:39:42.179Z,7.12
2019-03-02T12:42:30.397Z,7.00
2019-03-02T12:45:17.342Z,7.02
2019-03-02T12:48:04.218Z,7.01
2019-03-02T12:50:51.517Z,7.12
2019-03-02T12:53:35.689Z,7.22
2019-03-02T12:56:21.951Z,7.16
2019-03-02T12:59:08.478Z,7.24
2019-03-02T13:01:55.348Z,7.11
2019-03-02T13:04:45.408Z,6.95
2019-03-02T13:07:30.873Z,6.88
2019-03-02T13:10:17.724Z,6.98
2019-03-02T13:13:04.397Z,6.84
2019-03-02T13:15:51.212Z,7.02
2019-03-02T13:18:38.323Z,7.06
2019-03-02T13:21:25.078Z,7.04
2019-03-02T13:24:14.898Z,7.25
2019-03-02T13:26:49.821Z,7.28
2019-03-02T13:29:23.132Z,7.10
2019-03-02T13:32:09.780Z,7.20
2019-03-02T13:34:56.292Z,7.21
2019-03-02T13:37:42.955Z,7.19
2019-03-02T13:40:29.752Z,6.96
2019-03-02T13:43:37.557Z,6.98
2019-03-02T13:46:24.851Z,7.14
2019-03-02T13:49:11.360Z,7.32
2019-03-02T13:51:58.148Z,7.35
2019-03-02T13:54:33.878Z,7.45
2019-03-02T13:57:11.122Z,7.34
2019-03-02T13:59:58.036Z,7.30
2019-03-02T14:02:44.797Z,7.31
2019-03-02T14:05:31.378Z,7.23
2019-03-02T14:08:17.842Z,7.31
2019-03-02T14:11:04.764Z,7.41
2019-03-02T14:13:51.255Z,7.49
2019-03-02T14:16:37.994Z,7.31
2019-03-02T14:19:31.907Z,7.41
2019-03-02T14:22:18.500Z,7.39
2019-03-02T14:24:55.026Z,7.39
2019-03-02T14:27:41.468Z,7.51
2019-03-02T14:30:12.849Z,7.44
2019-03-02T14:32:59.409Z,7.43
2019-03-02T14:35:46.068Z,7.42
2019-03-02T14:38:23.795Z,7.40
2019-03-02T14:41:09.055Z,7.47
2019-03-02T14:43:57.150Z,7.34
2019-03-02T14:46:45.517Z,7.30
2019-03-02T14:49:32.224Z,7.22
2019-03-02T14:52:19.034Z,7.33
2019-03-02T14:55:05.721Z,7.45
2019-03-02T14:57:52.629Z,7.59
2019-03-02T15:00:39.379Z,7.62
2019-03-02T15:03:29.349Z,7.62
2019-03-02T15:06:15.607Z,7.74
2019-03-02T15:08:51.252Z,7.62
2019-03-02T15:11:40.030Z,7.59
2019-03-02T15:14:26.466Z,7.54
2019-03-02T15:17:13.183Z,7.55
2019-03-02T15:19:59.250Z,7.36
2019-03-02T15:22:46.396Z,7.32
2019-03-02T15:25:33.197Z,7.28
2019-03-02T15:28:28.930Z,7.23
2019-03-02T15:31:09.784Z,7.21
2019-03-02T15:33:56.319Z,7.13
2019-03-02T15:36:44.081Z,7.09
2019-03-02T15:39:32.050Z,7.11
2019-03-02T15:42:21.257Z,7.11
2019-03-02T15:45:06.897Z,7.18
2019-03-02T15:47:53.393Z,7.10
2019-03-02T15:50:40.225Z,7.05
2019-03-02T15:53:26.584Z,7.14
2019-03-02T15:56:35.640Z,7.08
2019-03-02T15:59:22.158Z,7.03
2019-03-02T16:02:10.225Z,7.06
2019-03-02T16:04:56.594Z,6.99
2019-03-02T16:07:38.881Z,6.99
2019-03-02T16:10:27.667Z,6.91
2019-03-02T16:13:16.846Z,6.90
2019-03-02T16:15:49.927Z,6.88
2019-03-02T16:18:38.393Z,6.82
2019-03-02T16:21:24.937Z,6.69
2019-03-02T16:24:11.379Z,6.58
2019-03-02T16:26:45.062Z,6.53
2019-03-02T16:29:31.468Z,6.49
2019-03-02T16:32:05.196Z,6.50
2019-03-02T16:34:51.801Z,6.40
2019-03-02T16:37:38.435Z,6.44
2019-03-02T16:40:26.056Z,6.31
2019-03-02T16:43:12.952Z,6.27
2019-03-02T16:45:59.370Z,6.26
2019-03-02T16:48:45.799Z,6.23
2019-03-02T16:51:53.701Z,6.04
2019-03-02T16:54:40.072Z,6.09
2019-03-02T16:57:30.344Z,6.06
2019-03-02T17:00:14.777Z,6.03
2019-03-02T17:03:03.015Z,6.07
2019-03-02T17:05:38.669Z,6.06
2019-03-02T17:08:25.331Z,6.00
2019-03-02T17:10:59.536Z,5.95
2019-03-02T17:13:45.535Z,5.95
2019-03-02T17:16:35.331Z,5.90
2019-03-02T17:19:24.444Z,5.82
2019-03-02T17:22:09.198Z,5.81
2019-03-02T17:24:56.161Z,5.83
2019-03-02T17:27:43.211Z,5.80
2019-03-02T17:30:34.161Z,5.80
2019-03-02T17:33:20.915Z,5.74
2019-03-02T17:36:07.613Z,5.70
2019-03-02T17:38:54.324Z,5.65
2019-03-02T17:41:41.103Z,5.56
2019-03-02T17:44:28.079Z,5.45
2019-03-02T17:47:15.161Z,5.52
2019-03-02T17:50:01.864Z,5.47
2019-03-02T17:52:50.487Z,5.43
2019-03-02T17:55:25.058Z,5.59
2019-03-02T17:58:11.874Z,5.52
2019-03-02T18:00:58.236Z,5.56
2019-03-02T18:03:50.201Z,5.54
2019-03-02T18:06:35.452Z,5.59
2019-03-02T18:09:24.053Z,5.55
2019-03-02T18:12:11.252Z,5.57
2019-03-02T18:14:58.235Z,5.57
2019-03-02T18:17:45.216Z,5.50
2019-03-02T18:20:15.898Z,5.58
2019-03-02T18:22:43.037Z,5.64
2019-03-02T18:25:11.983Z,5.60
2019-03-02T18:27:39.577Z,5.60
2019-03-02T18:30:09.963Z,5.63
2019-03-02T18:35:34.060Z,5.57
2019-03-02T18:38:04.485Z,5.49
2019-03-02T18:40:31.229Z,5.43
2019-03-02T18:42:58.607Z,5.33
2019-03-02T18:45:45.906Z,5.25
2019-03-02T18:48:34.136Z,5.11
2019-03-02T18:51:22.461Z,5.01
2019-03-02T18:53:49.713Z,4.87
2019-03-02T18:56:16.454Z,4.74
2019-03-02T18:58:43.097Z,4.61
2019-03-02T19:01:51.207Z,4.51
2019-03-02T19:04:20.759Z,4.44
2019-03-02T19:06:49.139Z,4.33
2019-03-02T19:11:55.351Z,4.22
2019-03-02T19:14:23.960Z,4.11
2019-03-02T19:16:50.691Z,4.08
2019-03-02T19:19:18.587Z,4.16
2019-03-02T19:21:45.361Z,4.04
2019-03-02T19:24:12.152Z,4.02
2019-03-02T19:26:39.289Z,3.98
2019-03-02T19:29:06.291Z,3.96
2019-03-02T19:32:14.175Z,4.02
2019-03-02T19:35:00.493Z,4.04
2019-03-02T19:37:27.278Z,3.99
2019-03-02T19:39:54.178Z,3.99
2019-03-02T19:42:20.914Z,3.99
2019-03-02T19:44:47.973Z,3.89
2019-03-02T19:47:14.853Z,3.89
2019-03-02T19:49:41.596Z,3.89
2019-03-02T19:52:08.533Z,3.90
2019-03-02T19:54:35.272Z,3.92
2019-03-02T19:57:02.038Z,3.85
2019-03-02T19:59:28.894Z,3.80
2019-03-02T20:01:55.832Z,3.86
2019-03-02T20:04:23.160Z,3.84
2019-03-02T20:06:50.026Z,3.79
2019-03-02T20:09:17.777Z,3.74
2019-03-02T20:11:44.505Z,3.75
2019-03-02T20:14:11.904Z,3.75
2019-03-02T20:16:38.925Z,3.71
2019-03-02T20:19:06.268Z,3.66
2019-03-02T20:21:33.095Z,3.70
2019-03-02T20:23:59.833Z,3.71
2019-03-02T20:26:26.891Z,3.72
2019-03-02T20:28:54.513Z,3.65
2019-03-02T20:31:21.506Z,3.65
2019-03-02T20:33:48.659Z,3.64
2019-03-02T20:36:15.589Z,3.64
2019-03-02T20:38:42.435Z,3.68
2019-03-02T20:41:09.582Z,3.70
2019-03-02T20:43:36.926Z,3.69
2019-03-02T20:46:04.080Z,3.70
2019-03-02T20:48:50.677Z,3.70
2019-03-02T20:51:17.521Z,3.79
2019-03-02T20:53:44.207Z,3.84
2019-03-02T20:56:11.401Z,3.83
2019-03-02T20:58:38.710Z,3.82
2019-03-02T21:01:05.466Z,3.79
2019-03-02T21:03:52.100Z,3.79
2019-03-02T21:06:18.776Z,3.84
2019-03-02T21:08:46.153Z,3.78
2019-03-02T21:11:14.190Z,3.69
2019-03-02T21:13:41.345Z,3.76
2019-03-02T21:16:08.547Z,3.75
2019-03-02T21:18:35.474Z,3.81
2019-03-02T21:21:02.634Z,3.81
2019-03-02T21:23:29.643Z,3.88
2019-03-02T21:26:16.238Z,3.94
2019-03-02T21:28:43.021Z,4.02
2019-03-02T21:31:09.756Z,4.17
2019-03-02T21:33:56.059Z,4.18
2019-03-02T21:36:22.794Z,4.27
2019-03-02T21:38:50.003Z,4.40
2019-03-02T21:41:16.688Z,4.44
2019-03-02T21:43:43.770Z,4.49
2019-03-02T21:46:10.788Z,4.55
2019-03-02T21:48:37.936Z,4.57
2019-03-02T21:51:05.765Z,4.63
2019-03-02T21:53:33.589Z,4.70
2019-03-02T21:56:00.668Z,4.77
2019-03-02T21:58:47.548Z,4.79
2019-03-02T22:01:14.337Z,4.78
2019-03-02T22:03:41.078Z,4.84
2019-03-02T22:06:27.375Z,4.92
2019-03-02T22:08:54.504Z,4.90
2019-03-02T22:11:21.482Z,4.96
2019-03-02T22:13:48.265Z,4.98
2019-03-02T22:16:34.833Z,4.92
2019-03-02T22:19:01.717Z,5.00
2019-03-02T22:21:28.469Z,4.98
2019-03-02T22:23:55.207Z,5.00
2019-03-02T22:26:22.012Z,5.05
2019-03-02T22:28:49.389Z,5.06
2019-03-02T22:31:16.187Z,5.09
2019-03-02T22:33:43.511Z,5.09
2019-03-02T22:36:10.551Z,5.13
2019-03-02T22:38:37.474Z,5.16
2019-03-02T22:41:04.263Z,5.19
2019-03-02T22:43:31.001Z,5.10
2019-03-02T22:45:57.941Z,5.01
2019-03-02T22:48:24.722Z,4.96
2019-03-02T22:50:51.453Z,4.82
2019-03-02T22:53:38.059Z,4.71
2019-03-02T22:56:04.903Z,4.60
2019-03-02T22:58:31.281Z,4.53
2019-03-02T23:01:37.517Z,4.45
2019-03-02T23:04:04.549Z,4.37
2019-03-02T23:06:31.401Z,4.24
2019-03-02T23:08:58.815Z,4.27
2019-03-02T23:11:25.461Z,4.15
2019-03-02T23:13:52.193Z,4.19
2019-03-02T23:16:18.988Z,4.22
2019-03-02T23:18:45.836Z,4.19
2019-03-02T23:21:12.669Z,4.28
2019-03-02T23:23:39.475Z,4.34
2019-03-02T23:26:06.317Z,4.47
2019-03-02T23:28:33.059Z,4.50
2019-03-02T23:30:59.849Z,4.61
2019-03-02T23:33:26.639Z,4.69
2019-03-02T23:35:53.468Z,4.74
2019-03-02T23:38:20.256Z,4.79
2019-03-02T23:40:47.269Z,4.82
2019-03-02T23:43:14.352Z,4.86
2019-03-02T23:46:01.018Z,4.87
2019-03-02T23:48:27.907Z,4.89
2019-03-02T23:50:55.375Z,5.00
2019-03-02T23:53:22.160Z,5.07
2019-03-02T23:55:49.037Z,5.19
2019-03-02T23:58:15.886Z,5.23
